Time;durP1;ratioP1;P1;durP2;ratioP2;P2;SDS_P1;SDS_P2;PMS_P1;PMS_P2;Temp;Humidity;BMP_temperature;BMP_pressure;BME280_temperature;BME280_humidity;BME280_pressure;Samples;Min_cycle;Max_cycle;Signal;HPM_P1;HPM_P2
2023/06/03 00:00:41;;;;;;;1.48;0.85;;;19.60;1.00;;;;;;4962961;23;20468;-57
2023/06/03 00:03:14;;;;;;;1.92;0.88;;;19.50;1.00;;;;;;4898689;29;20068;-56
2023/06/03 00:05:41;;;;;;;;;;;19.50;1.00;;;;;;4899176;29;20041;-55
2023/06/03 00:08:08;;;;;;;2.17;0.73;;;19.60;1.00;;;;;;4897872;29;19930;-57
2023/06/03 00:10:35;;;;;;;2.40;1.02;;;19.50;1.00;;;;;;4898772;29;20462;-54
2023/06/03 00:13:02;;;;;;;2.22;0.93;;;19.50;1.00;;;;;;4898673;29;20056;-54
2023/06/03 00:15:29;;;;;;;4.10;1.10;;;19.50;1.00;;;;;;4898449;29;20099;-52
2023/06/03 00:17:56;;;;;;;2.22;0.80;;;19.50;1.00;;;;;;4898708;29;20044;-56
2023/06/03 00:20:25;;;;;;;1.58;0.85;;;19.50;1.00;;;;;;4898006;29;20112;-55
2023/06/03 00:22:51;;;;;;;3.15;1.20;;;19.50;1.00;;;;;;4898759;29;20056;-58
2023/06/03 00:25:18;;;;;;;3.50;1.08;;;19.50;1.00;;;;;;4898205;29;20064;-57
2023/06/03 00:27:49;;;;;;;3.08;0.75;;;19.50;1.00;;;;;;4898487;29;20120;-57
2023/06/03 00:30:16;;;;;;;3.20;0.75;;;19.50;1.00;;;;;;5016540;23;20051;-55
2023/06/03 00:32:44;;;;;;;2.80;0.85;;;19.50;1.00;;;;;;4878886;29;20532;-57
2023/06/03 00:35:12;;;;;;;2.25;0.90;;;19.50;1.00;;;;;;4890570;29;20053;-53
2023/06/03 00:37:39;;;;;;;2.00;0.73;;;19.50;1.00;;;;;;4861047;29;20041;-55
2023/06/03 00:40:07;;;;;;;2.30;1.05;;;19.50;1.00;;;;;;4860487;29;20486;-55
2023/06/03 00:42:34;;;;;;;1.85;0.63;;;19.50;1.00;;;;;;4860722;29;20033;-53
2023/06/03 00:45:01;;;;;;;1.42;0.80;;;19.50;1.00;;;;;;4859503;29;20049;-56
2023/06/03 00:47:28;;;;;;;4.35;1.17;;;19.50;1.00;;;;;;4860661;29;20049;-58
2023/06/03 00:49:56;;;;;;;2.97;1.05;;;19.50;1.00;;;;;;4859371;29;20103;-54
2023/06/03 00:52:26;;;;;;;4.45;0.57;;;19.50;1.00;;;;;;4890468;29;20049;-53
2023/06/03 00:54:53;;;;;;;4.13;0.80;;;19.50;1.00;;;;;;4867024;29;20076;-52
2023/06/03 00:57:22;;;;;;;5.43;1.17;;;19.50;1.00;;;;;;4860464;29;20049;-53
2023/06/03 00:59:49;;;;;;;1.95;0.73;;;19.50;1.00;;;;;;4860445;29;20069;-55
2023/06/03 01:02:17;;;;;;;2.33;1.00;;;19.50;1.00;;;;;;5028174;23;20128;-57
2023/06/03 01:04:47;;;;;;;2.00;1.02;;;19.50;1.00;;;;;;4896173;29;20071;-56
2023/06/03 01:07:46;;;;;;;2.70;0.80;;;19.50;1.00;;;;;;4896478;29;20048;-57
2023/06/03 01:10:13;;;;;;;2.35;0.77;;;19.50;1.00;;;;;;4897660;29;20437;-57
2023/06/03 01:12:54;;;;;;;1.63;0.80;;;19.50;1.00;;;;;;4897444;29;20036;-58
2023/06/03 01:15:23;;;;;;;3.60;0.80;;;19.40;1.00;;;;;;4896142;29;20048;-55
2023/06/03 01:17:52;;;;;;;4.10;1.15;;;19.50;1.00;;;;;;4896127;29;20072;-53
2023/06/03 01:20:26;;;;;;;1.05;0.70;;;19.50;1.00;;;;;;4908940;29;20112;-54
2023/06/03 01:23:11;;;;;;;2.65;0.98;;;19.40;1.00;;;;;;4897469;29;20036;-57
2023/06/03 01:25:41;;;;;;;1.90;0.80;;;19.40;1.00;;;;;;4897700;29;20374;-53
2023/06/03 01:28:08;;;;;;;1.33;0.60;;;19.50;1.00;;;;;;4897473;29;20485;-52
2023/06/03 01:30:35;;;;;;;2.53;1.20;;;19.50;1.00;;;;;;4895617;29;20131;-57
2023/06/03 01:33:04;;;;;;;2.13;0.70;;;19.40;1.00;;;;;;4927137;23;20557;-54
2023/06/03 01:35:32;;;;;;;2.70;0.57;;;19.50;1.00;;;;;;4877087;29;20081;-57
2023/06/03 01:37:59;;;;;;;1.92;0.80;;;19.40;1.00;;;;;;4879101;29;20409;-56
2023/06/03 01:40:27;;;;;;;2.92;1.25;;;19.40;1.00;;;;;;4876863;29;20062;-55
2023/06/03 01:42:54;;;;;;;1.98;0.73;;;19.40;1.00;;;;;;4877399;29;20045;-56
2023/06/03 01:45:21;;;;;;;1.50;0.63;;;19.40;1.00;;;;;;4877139;29;20538;-57
2023/06/03 01:47:48;;;;;;;3.05;0.82;;;19.40;1.00;;;;;;4877357;29;20055;-55
2023/06/03 01:50:22;;;;;;;2.78;1.17;;;19.40;1.00;;;;;;4876695;29;20041;-54
2023/06/03 01:52:49;;;;;;;1.30;0.50;;;19.40;1.00;;;;;;4877071;29;20564;-53
2023/06/03 01:55:17;;;;;;;4.32;1.85;;;19.40;1.00;;;;;;4877085;29;20053;-56
2023/06/03 01:57:46;;;;;;;1.75;0.65;;;19.40;1.00;;;;;;4878416;29;20041;-58
2023/06/03 02:00:15;;;;;;;2.20;1.48;;;19.40;1.00;;;;;;4876598;29;20048;-56
2023/06/03 02:02:42;;;;;;;2.55;0.80;;;19.40;1.00;;;;;;4877887;29;20053;-57
2023/06/03 02:05:10;;;;;;;3.22;0.50;;;19.40;1.00;;;;;;4876760;29;20045;-55
2023/06/03 02:07:37;;;;;;;2.40;0.73;;;19.40;1.00;;;;;;4876791;29;20055;-56
2023/06/03 02:10:04;;;;;;;1.05;0.55;;;19.40;1.00;;;;;;4878397;29;20053;-54
2023/06/03 02:12:31;;;;;;;1.92;0.50;;;19.40;1.00;;;;;;4876779;29;20049;-53
2023/06/03 02:14:58;;;;;;;1.85;1.00;;;19.40;1.00;;;;;;4878196;29;20040;-54
2023/06/03 02:17:26;;;;;;;2.15;0.63;;;19.40;1.00;;;;;;4876942;29;20049;-52
2023/06/03 02:19:54;;;;;;;1.73;0.80;;;19.40;1.00;;;;;;4877782;29;20409;-56
2023/06/03 02:22:22;;;;;;;2.60;0.70;;;19.40;1.00;;;;;;4876525;29;20148;-55
2023/06/03 02:24:50;;;;;;;1.08;0.57;;;19.40;1.00;;;;;;4878051;29;20048;-56
2023/06/03 02:27:20;;;;;;;1.95;0.45;;;19.30;1.00;;;;;;4876682;29;20469;-52
2023/06/03 02:29:50;;;;;;;1.33;0.70;;;19.40;1.00;;;;;;4876506;29;20052;-56
2023/06/03 02:35:05;;;;;;;1.15;0.50;;;19.30;1.00;;;;;;4861067;29;20053;-53
2023/06/03 02:37:33;;;;;;;1.92;0.70;;;19.30;1.00;;;;;;4861761;29;20417;-56
2023/06/03 02:40:00;;;;;;;2.03;0.70;;;19.30;1.00;;;;;;4861769;29;20053;-53
2023/06/03 02:42:28;;;;;;;2.47;0.70;;;19.30;1.00;;;;;;4863033;29;20132;-52
2023/06/03 02:44:55;;;;;;;1.48;0.70;;;19.30;1.00;;;;;;4863312;29;20037;-53
2023/06/03 02:47:22;;;;;;;2.30;0.75;;;19.30;1.00;;;;;;4861469;29;20128;-55
2023/06/03 02:49:50;;;;;;;2.63;0.88;;;19.30;1.00;;;;;;4861328;29;20412;-54
2023/06/03 02:52:17;;;;;;;2.33;0.47;;;19.30;1.00;;;;;;4862712;29;20040;-58
2023/06/03 02:54:44;;;;;;;3.97;0.60;;;19.30;1.00;;;;;;4861523;29;20455;-57
2023/06/03 02:57:11;;;;;;;2.40;0.70;;;19.30;1.00;;;;;;4861436;29;20422;-56
2023/06/03 02:59:38;;;;;;;2.15;0.68;;;19.30;1.00;;;;;;4862331;29;20064;-55
2023/06/03 03:02:05;;;;;;;1.83;0.55;;;19.30;1.00;;;;;;4861532;29;20045;-55
2023/06/03 03:04:36;;;;;;;1.35;0.50;;;19.30;1.00;;;;;;4860926;29;20046;-52
2023/06/03 03:07:07;;;;;;;2.38;0.55;;;19.30;1.00;;;;;;5199144;23;20048;-54
2023/06/03 03:09:34;;;;;;;3.00;0.57;;;19.30;1.00;;;;;;4900727;29;20082;-56
2023/06/03 03:12:02;;;;;;;2.17;0.77;;;19.30;1.00;;;;;;4898515;29;20048;-52
2023/06/03 03:14:29;;;;;;;2.15;0.70;;;19.30;1.00;;;;;;4897980;29;20493;-58
2023/06/03 03:16:56;;;;;;;1.80;0.65;;;19.30;1.00;;;;;;4897977;29;20045;-56
2023/06/03 03:19:24;;;;;;;1.30;0.65;;;19.30;1.00;;;;;;4897287;29;20079;-56
2023/06/03 03:21:52;;;;;;;3.45;0.85;;;19.30;1.00;;;;;;4897238;29;20132;-57
2023/06/03 03:24:24;;;;;;;1.90;0.60;;;19.30;1.00;;;;;;4897408;29;20120;-56
2023/06/03 03:26:52;;;;;;;1.50;0.55;;;19.30;1.00;;;;;;4898380;29;20052;-54
2023/06/03 03:29:23;;;;;;;1.25;0.60;;;19.20;1.00;;;;;;4897272;29;20049;-55
2023/06/03 03:31:57;;;;;;;1.73;0.70;;;19.30;1.00;;;;;;4899680;29;20528;-54
2023/06/03 03:34:24;;;;;;;1.23;0.65;;;19.20;1.00;;;;;;4897950;29;20516;-57
2023/06/03 03:36:51;;;;;;;1.20;0.50;;;19.20;1.00;;;;;;4902528;29;20138;-53
2023/06/03 03:39:18;;;;;;;1.00;0.50;;;19.20;1.00;;;;;;4960805;23;20049;-55
2023/06/03 03:41:51;;;;;;;1.30;0.70;;;19.20;1.00;;;;;;4882107;29;20049;-53
2023/06/03 03:44:19;;;;;;;1.42;0.50;;;19.20;1.00;;;;;;4878099;29;20057;-56
2023/06/03 03:47:03;;;;;;;2.78;0.68;;;19.20;1.00;;;;;;4880309;29;20045;-51
2023/06/03 03:49:35;;;;;;;1.65;0.70;;;19.20;1.00;;;;;;4878735;29;20097;-55
2023/06/03 03:52:06;;;;;;;3.08;1.00;;;19.20;1.00;;;;;;4879181;29;20041;-53
2023/06/03 03:54:40;;;;;;;3.00;0.93;;;19.20;1.00;;;;;;4878902;29;20113;-55
2023/06/03 03:57:12;;;;;;;1.40;0.80;;;19.20;1.00;;;;;;4878868;29;20400;-56
2023/06/03 03:59:44;;;;;;;1.83;0.90;;;19.20;1.00;;;;;;4878777;29;20097;-54
2023/06/03 04:02:11;;;;;;;1.02;0.50;;;19.20;1.00;;;;;;4879155;29;20063;-56
2023/06/03 04:04:45;;;;;;;2.17;0.47;;;19.20;1.00;;;;;;4886172;29;20049;-54
2023/06/03 04:07:18;;;;;;;2.20;0.50;;;19.20;1.00;;;;;;4880170;29;20124;-55
2023/06/03 04:09:46;;;;;;;2.55;0.60;;;19.20;1.00;;;;;;4878121;29;20033;-55
2023/06/03 04:12:27;;;;;;;1.98;0.50;;;19.20;1.00;;;;;;4878624;29;20403;-51
2023/06/03 04:14:57;;;;;;;1.55;0.63;;;19.20;1.00;;;;;;4878528;29;20105;-56
2023/06/03 04:17:27;;;;;;;2.38;0.85;;;19.20;1.00;;;;;;4878455;29;20088;-55
2023/06/03 04:19:55;;;;;;;1.35;0.50;;;19.20;1.00;;;;;;4879751;29;20041;-56
2023/06/03 04:22:25;;;;;;;2.35;0.80;;;19.20;1.00;;;;;;4878385;29;20053;-53
2023/06/03 04:24:59;;;;;;;2.40;0.75;;;19.20;1.00;;;;;;4878223;29;20041;-54
2023/06/03 04:27:36;;;;;;;3.60;0.73;;;19.20;1.00;;;;;;4878202;29;20053;-53
2023/06/03 04:30:04;;;;;;;2.38;0.80;;;19.20;1.00;;;;;;4878154;29;20041;-55
2023/06/03 04:32:32;;;;;;;1.23;0.55;;;19.10;1.00;;;;;;4879714;29;20079;-57
2023/06/03 04:34:59;;;;;;;0.80;0.32;;;19.20;1.00;;;;;;4878103;29;20045;-57
2023/06/03 04:37:26;;;;;;;1.63;0.50;;;19.10;1.00;;;;;;4877951;29;20115;-57
2023/06/03 04:39:53;;;;;;;0.88;0.50;;;19.10;1.00;;;;;;4940423;23;20112;-54
2023/06/03 04:42:21;;;;;;;1.33;0.60;;;19.20;1.00;;;;;;4882165;29;20105;-56
2023/06/03 04:44:51;;;;;;;1.60;0.50;;;19.20;1.00;;;;;;4893542;29;20041;-56
2023/06/03 04:47:19;;;;;;;1.80;0.65;;;19.10;1.00;;;;;;4878101;29;20516;-57
2023/06/03 04:49:47;;;;;;;1.63;0.68;;;19.10;1.00;;;;;;4877741;29;20048;-54
2023/06/03 04:52:14;;;;;;;1.25;0.60;;;19.20;1.00;;;;;;4879556;29;20044;-52
2023/06/03 04:54:47;;;;;;;1.85;0.65;;;19.10;1.00;;;;;;4877684;29;20045;-54
2023/06/03 04:57:17;;;;;;;1.10;0.50;;;19.10;1.00;;;;;;4878174;29;20575;-53
2023/06/03 04:59:45;;;;;;;0.57;0.30;;;19.10;1.00;;;;;;4877707;29;20577;-55
2023/06/03 05:02:16;;;;;;;2.90;0.80;;;19.10;1.00;;;;;;4878110;29;20040;-57
2023/06/03 05:04:45;;;;;;;0.90;0.43;;;19.10;1.00;;;;;;4877778;29;20049;-54
2023/06/03 05:07:13;;;;;;;1.10;0.50;;;19.10;1.00;;;;;;4878038;29;20049;-56
2023/06/03 05:09:40;;;;;;;1.45;0.57;;;19.10;1.00;;;;;;4876672;29;20148;-57
2023/06/03 05:12:09;;;;;;;1.20;0.45;;;19.10;1.00;;;;;;4878707;29;20493;-52
2023/06/03 05:14:36;;;;;;;2.25;0.60;;;19.10;1.00;;;;;;4877388;29;20478;-57
2023/06/03 05:17:03;;;;;;;0.90;0.45;;;19.10;1.00;;;;;;4877807;29;20037;-56
2023/06/03 05:19:32;;;;;;;1.63;0.60;;;19.10;1.00;;;;;;4881493;29;20053;-54
2023/06/03 05:22:02;;;;;;;0.80;0.40;;;19.10;1.00;;;;;;4877991;29;20124;-56
2023/06/03 05:24:29;;;;;;;0.60;0.32;;;19.10;1.00;;;;;;4877490;29;20106;-56
2023/06/03 05:26:57;;;;;;;1.67;0.45;;;19.10;1.00;;;;;;4878124;29;20112;-53
2023/06/03 05:29:24;;;;;;;3.58;1.02;;;19.10;1.00;;;;;;4878999;29;20045;-52
2023/06/03 05:31:51;;;;;;;0.73;0.30;;;19.10;1.00;;;;;;4877326;29;20389;-51
2023/06/03 05:34:19;;;;;;;1.38;0.50;;;19.10;1.00;;;;;;4877048;29;20057;-56
2023/06/03 05:36:45;;;;;;;1.60;0.52;;;19.10;1.00;;;;;;4877107;29;20139;-54
2023/06/03 05:39:13;;;;;;;1.58;0.82;;;19.10;1.00;;;;;;4877120;29;20045;-55
2023/06/03 05:41:40;;;;;;;1.70;0.45;;;19.10;1.00;;;;;;5148129;23;20056;-54
2023/06/03 05:44:09;;;;;;;1.70;1.15;;;19.10;1.00;;;;;;4890546;29;20040;-53
2023/06/03 05:46:36;;;;;;;2.03;1.10;;;19.10;1.00;;;;;;4899839;29;20044;-57
2023/06/03 05:49:03;;;;;;;0.82;0.30;;;19.10;1.00;;;;;;4895517;29;20131;-54
2023/06/03 05:51:30;;;;;;;4.78;0.50;;;19.10;1.00;;;;;;4897423;29;20171;-54
2023/06/03 05:53:56;;;;;;;1.13;0.57;;;19.10;1.00;;;;;;4895377;29;20044;-56
2023/06/03 05:56:26;;;;;;;1.77;0.60;;;19.10;1.00;;;;;;4911799;29;20136;-56
2023/06/03 05:58:53;;;;;;;1.20;0.50;;;19.10;1.00;;;;;;4889420;29;20068;-57
2023/06/03 06:01:19;;;;;;;1.40;0.63;;;19.10;1.00;;;;;;4895626;29;20052;-54
2023/06/03 06:03:47;;;;;;;1.02;0.63;;;19.10;1.00;;;;;;4896682;29;20052;-53
2023/06/03 06:06:15;;;;;;;1.67;0.63;;;19.20;1.00;;;;;;4894997;29;20045;-54
2023/06/03 06:08:43;;;;;;;0.70;0.30;;;19.20;1.00;;;;;;4896621;29;20041;-56
2023/06/03 06:11:10;;;;;;;2.53;0.75;;;19.20;1.00;;;;;;4911335;29;20632;-55
2023/06/03 06:13:38;;;;;;;1.60;0.57;;;19.20;1.00;;;;;;5022052;23;20107;-51
2023/06/03 06:16:06;;;;;;;2.05;0.30;;;19.20;1.00;;;;;;4888114;29;20041;-51
2023/06/03 06:18:35;;;;;;;1.77;1.15;;;19.20;1.00;;;;;;4876492;29;20074;-53
2023/06/03 06:21:02;;;;;;;1.17;0.28;;;19.20;1.00;;;;;;4876340;29;20053;-54
2023/06/03 06:23:30;;;;;;;1.08;0.45;;;19.20;1.00;;;;;;4876306;29;20143;-49
2023/06/03 06:25:58;;;;;;;0.85;0.43;;;19.30;1.00;;;;;;4876396;29;20494;-53
2023/06/03 06:28:27;;;;;;;0.85;0.32;;;19.30;1.00;;;;;;4877832;29;20379;-53
2023/06/03 06:31:04;;;;;;;1.33;0.45;;;19.30;1.00;;;;;;4876441;29;20056;-54
2023/06/03 06:33:39;;;;;;;1.02;0.50;;;19.30;1.00;;;;;;4875887;29;20045;-50
2023/06/03 06:36:25;;;;;;;1.50;0.40;;;19.30;1.00;;;;;;4876743;29;20417;-50
2023/06/03 06:38:53;;;;;;;2.15;0.40;;;19.40;1.00;;;;;;4876108;29;20462;-51
2023/06/03 06:41:21;;;;;;;1.60;0.60;;;19.40;1.00;;;;;;4877644;29;20051;-54
2023/06/03 06:43:48;;;;;;;1.08;0.47;;;19.40;1.00;;;;;;4876665;29;20067;-54
2023/06/03 06:46:16;;;;;;;1.73;0.70;;;19.40;1.00;;;;;;4876159;29;20045;-50
2023/06/03 06:48:44;;;;;;;1.52;0.70;;;19.40;1.00;;;;;;4875988;29;20057;-54
2023/06/03 06:51:12;;;;;;;1.00;0.30;;;19.40;1.00;;;;;;4876226;29;20069;-52
2023/06/03 06:53:39;;;;;;;0.82;0.30;;;19.50;1.00;;;;;;4875844;29;20041;-51
2023/06/03 06:56:09;;;;;;;3.92;0.68;;;19.40;1.00;;;;;;4876400;29;20116;-51
2023/06/03 06:58:50;;;;;;;1.70;0.60;;;19.50;1.00;;;;;;4876180;29;20509;-50
2023/06/03 07:01:18;;;;;;;1.48;0.30;;;19.50;1.00;;;;;;4876314;29;20168;-51
2023/06/03 07:03:48;;;;;;;0.85;0.38;;;19.50;1.00;;;;;;4876389;29;20049;-54
2023/06/03 07:06:15;;;;;;;2.22;0.45;;;19.60;1.00;;;;;;4875965;29;20045;-54
2023/06/03 07:08:44;;;;;;;1.77;0.40;;;19.50;1.00;;;;;;4875748;29;20072;-53
2023/06/03 07:11:12;;;;;;;3.08;0.47;;;19.60;1.00;;;;;;4876324;29;20052;-51
2023/06/03 07:16:33;;;;;;;1.42;0.70;;;19.60;1.00;;;;;;4873978;29;20105;-54
2023/06/03 07:19:02;;;;;;;1.35;0.50;;;19.70;1.00;;;;;;4877200;29;20049;-53
2023/06/03 07:21:35;;;;;;;1.27;0.50;;;19.60;1.00;;;;;;4879317;29;20053;-51
2023/06/03 07:24:07;;;;;;;0.95;0.50;;;19.60;1.00;;;;;;4879190;29;20049;-50
2023/06/03 07:26:35;;;;;;;2.13;0.90;;;19.70;1.00;;;;;;4879043;29;20049;-51
2023/06/03 07:29:03;;;;;;;1.60;0.90;;;19.70;1.00;;;;;;4879052;29;20434;-50
2023/06/03 07:31:35;;;;;;;0.90;0.35;;;19.70;1.00;;;;;;4879118;29;20425;-51
2023/06/03 07:34:03;;;;;;;1.63;0.40;;;19.70;1.00;;;;;;4871926;29;20113;-51
2023/06/03 07:36:34;;;;;;;1.48;0.38;;;19.80;1.00;;;;;;4879377;29;20409;-52
2023/06/03 07:39:08;;;;;;;0.80;0.32;;;19.80;1.00;;;;;;4886065;29;20072;-51
2023/06/03 07:41:45;;;;;;;1.65;0.30;;;19.80;1.00;;;;;;4878835;29;20060;-51
2023/06/03 07:44:29;;;;;;;0.98;0.47;;;19.80;1.00;;;;;;4879624;29;20061;-53
2023/06/03 07:46:57;;;;;;;0.95;0.30;;;19.80;1.00;;;;;;4859403;29;20049;-54
2023/06/03 07:49:24;;;;;;;1.60;0.45;;;19.80;1.00;;;;;;4861397;29;20041;-56
2023/06/03 07:51:52;;;;;;;1.58;0.60;;;19.80;1.00;;;;;;4869167;29;20045;-52
2023/06/03 07:54:19;;;;;;;1.83;0.60;;;19.80;1.00;;;;;;4861424;29;20041;-53
2023/06/03 07:56:46;;;;;;;1.95;0.63;;;19.90;1.00;;;;;;4863144;29;20045;-55
2023/06/03 07:59:15;;;;;;;0.70;0.40;;;19.90;1.00;;;;;;4866952;29;20518;-53
2023/06/03 08:01:47;;;;;;;0.95;0.30;;;19.90;1.00;;;;;;4861292;29;20064;-54
2023/06/03 08:04:20;;;;;;;0.77;0.30;;;19.90;1.00;;;;;;4861185;29;20128;-50
2023/06/03 08:06:49;;;;;;;0.93;0.40;;;19.90;1.00;;;;;;4861088;29;20124;-53
2023/06/03 08:09:28;;;;;;;0.95;0.38;;;19.90;1.00;;;;;;4861033;29;20121;-50
2023/06/03 08:11:56;;;;;;;1.00;0.40;;;20.00;1.00;;;;;;4861172;29;20041;-55
2023/06/03 08:14:25;;;;;;;2.63;0.70;;;20.00;1.00;;;;;;4861020;29;20049;-51
2023/06/03 08:17:01;;;;;;;0.70;0.35;;;20.00;1.00;;;;;;4861199;29;20128;-53
2023/06/03 08:19:28;;;;;;;2.25;0.60;;;20.00;1.00;;;;;;4860849;29;20060;-54
2023/06/03 08:21:55;;;;;;;1.60;0.55;;;20.10;1.00;;;;;;4861051;29;20137;-50
2023/06/03 08:24:22;;;;;;;1.45;0.60;;;20.10;1.00;;;;;;4860811;29;20045;-53
2023/06/03 08:26:48;;;;;;;0.93;0.60;;;20.10;1.00;;;;;;4861047;29;20045;-52
2023/06/03 08:29:15;;;;;;;0.70;0.40;;;20.10;1.00;;;;;;4860255;29;20040;-50
2023/06/03 08:31:42;;;;;;;2.90;0.50;;;20.10;1.00;;;;;;4860676;29;20435;-51
2023/06/03 08:34:09;;;;;;;1.15;0.40;;;20.10;1.00;;;;;;4860962;29;20061;-55
2023/06/03 08:36:36;;;;;;;0.88;0.30;;;20.20;1.00;;;;;;4860747;29;20084;-54
2023/06/03 08:39:06;;;;;;;4.20;0.50;;;20.20;1.00;;;;;;4860536;29;20049;-50
2023/06/03 08:41:38;;;;;;;0.70;0.32;;;20.20;1.00;;;;;;4861293;29;20574;-51
2023/06/03 08:44:24;;;;;;;0.80;0.30;;;20.20;1.00;;;;;;4860554;29;20136;-51
2023/06/03 08:47:13;;;;;;;2.97;0.68;;;20.20;1.00;;;;;;4859878;29;20037;-54
2023/06/03 08:49:57;;;;;;;1.27;0.50;;;20.20;1.00;;;;;;4857517;29;20069;-52
2023/06/03 08:52:27;;;;;;;1.88;0.57;;;20.20;1.00;;;;;;4860777;29;20102;-51
2023/06/03 08:54:58;;;;;;;1.55;0.82;;;20.20;1.00;;;;;;4860336;29;20037;-51
2023/06/03 08:57:47;;;;;;;0.85;0.38;;;20.30;1.00;;;;;;4860575;29;20049;-52
2023/06/03 09:00:24;;;;;;;3.67;0.55;;;20.30;1.00;;;;;;4840915;29;20141;-50
2023/06/03 09:02:54;;;;;;;1.05;0.55;;;20.30;1.00;;;;;;4860726;29;20097;-51
2023/06/03 09:05:22;;;;;;;0.93;0.55;;;20.30;1.00;;;;;;4855149;29;20069;-54
2023/06/03 09:07:50;;;;;;;0.98;0.38;;;20.30;1.00;;;;;;4860393;29;20136;-51
2023/06/03 09:10:22;;;;;;;0.75;0.43;;;20.30;1.00;;;;;;4859066;29;20038;-55
2023/06/03 09:12:49;;;;;;;1.85;0.60;;;20.30;1.00;;;;;;4859917;29;20510;-54
2023/06/03 09:15:16;;;;;;;1.10;0.60;;;20.30;1.00;;;;;;4860044;29;20070;-51
2023/06/03 09:17:44;;;;;;;1.05;0.60;;;20.30;1.00;;;;;;4892899;23;20056;-51
2023/06/03 09:20:12;;;;;;;2.20;0.63;;;20.40;1.00;;;;;;4897376;29;20041;-53
2023/06/03 09:22:42;;;;;;;2.25;0.35;;;20.40;1.00;;;;;;4897040;29;20056;-53
2023/06/03 09:25:09;;;;;;;0.60;0.30;;;20.40;1.00;;;;;;4897076;29;21467;-52
2023/06/03 09:27:36;;;;;;;1.02;0.47;;;20.40;1.00;;;;;;4897088;29;20145;-52
2023/06/03 09:30:04;;;;;;;1.17;0.63;;;20.40;1.00;;;;;;4896759;29;20033;-53
2023/06/03 09:32:33;;;;;;;0.90;0.35;;;20.40;1.00;;;;;;4897279;29;20049;-53
2023/06/03 09:35:04;;;;;;;1.42;0.28;;;20.40;1.00;;;;;;4896804;29;20081;-49
2023/06/03 09:37:32;;;;;;;1.08;0.50;;;20.40;1.00;;;;;;4895918;29;20116;-53
2023/06/03 09:40:00;;;;;;;1.13;0.43;;;20.50;1.00;;;;;;4895713;29;20701;-52
2023/06/03 09:42:43;;;;;;;3.38;0.40;;;20.40;1.00;;;;;;4895843;29;20049;-50
2023/06/03 09:45:25;;;;;;;;;;;20.50;1.00;;;;;;4896599;29;20104;-52
2023/06/03 09:47:53;;;;;;;9.05;0.70;;;20.40;1.00;;;;;;4935318;23;19927;-51
2023/06/03 09:50:21;;;;;;;3.75;0.57;;;20.40;1.00;;;;;;4877644;29;20057;-50
2023/06/03 09:52:47;;;;;;;4.88;0.98;;;20.40;1.00;;;;;;4875479;29;20056;-50
2023/06/03 09:55:15;;;;;;;4.82;0.60;;;20.40;1.00;;;;;;4875097;29;20581;-52
2023/06/03 09:57:41;;;;;;;6.95;1.27;;;20.50;1.00;;;;;;4876016;29;20076;-52
2023/06/03 10:00:13;;;;;;;5.10;0.75;;;20.50;1.00;;;;;;4872872;29;20041;-51
2023/06/03 10:02:44;;;;;;;1.52;0.82;;;20.50;1.00;;;;;;4876710;29;20079;-54
2023/06/03 10:05:27;;;;;;;4.50;0.45;;;20.50;1.00;;;;;;4875462;29;20558;-51
2023/06/03 10:07:55;;;;;;;1.88;0.70;;;20.50;1.00;;;;;;4873190;29;20045;-54
2023/06/03 10:10:23;;;;;;;6.95;0.90;;;20.50;1.00;;;;;;4867974;29;20041;-50
2023/06/03 10:12:51;;;;;;;1.23;0.50;;;20.50;1.00;;;;;;4870433;29;20049;-54
2023/06/03 10:15:39;;;;;;;3.00;0.90;;;20.50;1.00;;;;;;4870495;29;20037;-51
2023/06/03 10:18:07;;;;;;;2.55;0.57;;;20.50;1.00;;;;;;5051363;23;20113;-51
2023/06/03 10:20:40;;;;;;;1.40;0.57;;;20.50;1.00;;;;;;4896087;29;20074;-54
2023/06/03 10:23:08;;;;;;;4.07;0.60;;;20.50;1.00;;;;;;4890985;29;20071;-52
2023/06/03 10:25:40;;;;;;;3.60;0.95;;;20.50;1.00;;;;;;4895359;29;20040;-51
2023/06/03 10:28:07;;;;;;;3.55;0.90;;;20.50;1.00;;;;;;4890227;29;20501;-56
2023/06/03 10:30:35;;;;;;;2.08;0.60;;;20.50;1.00;;;;;;4899700;29;20044;-50
2023/06/03 10:33:06;;;;;;;1.83;0.90;;;20.50;1.00;;;;;;4896824;29;20048;-51
2023/06/03 10:35:34;;;;;;;2.50;0.52;;;20.50;1.00;;;;;;4896255;29;20049;-51
2023/06/03 10:38:03;;;;;;;3.15;0.75;;;20.50;1.00;;;;;;4896184;29;20076;-54
2023/06/03 10:40:31;;;;;;;1.30;0.77;;;20.50;1.00;;;;;;4889529;29;20048;-52
2023/06/03 10:42:58;;;;;;;1.02;0.55;;;20.50;1.00;;;;;;4895874;29;20543;-51
2023/06/03 10:45:27;;;;;;;3.25;0.80;;;20.50;1.00;;;;;;4891574;29;20049;-53
2023/06/03 10:48:08;;;;;;;1.50;0.85;;;20.50;1.00;;;;;;4893929;29;20047;-50
2023/06/03 10:51:04;;;;;;;4.50;0.60;;;20.50;1.00;;;;;;4895469;29;20374;-50
2023/06/03 10:53:47;;;;;;;3.97;0.95;;;20.50;1.00;;;;;;4885580;29;20061;-52
2023/06/03 10:56:26;;;;;;;4.68;1.20;;;20.50;1.00;;;;;;4895751;29;20070;-50
2023/06/03 10:59:06;;;;;;;3.03;0.60;;;20.50;1.00;;;;;;4895638;29;20048;-55
2023/06/03 11:01:58;;;;;;;5.53;0.55;;;20.50;1.00;;;;;;4894043;29;20064;-56
2023/06/03 11:04:27;;;;;;;1.67;0.63;;;20.40;1.00;;;;;;4890275;29;20073;-52
2023/06/03 11:06:54;;;;;;;1.38;0.50;;;20.40;1.00;;;;;;4893328;29;20128;-55
2023/06/03 11:09:37;;;;;;;2.85;1.13;;;20.50;1.00;;;;;;4898158;29;20528;-56
2023/06/03 11:12:14;;;;;;;2.72;0.57;;;20.40;1.00;;;;;;4894409;29;20109;-54
2023/06/03 11:14:48;;;;;;;1.35;0.32;;;20.40;1.00;;;;;;4892425;29;20113;-52
2023/06/03 11:17:18;;;;;;;1.17;0.40;;;20.40;1.00;;;;;;4896354;29;20104;-53
2023/06/03 11:19:45;;;;;;;6.95;0.98;;;20.40;1.00;;;;;;4927568;23;20571;-55
2023/06/03 11:22:13;;;;;;;5.20;0.82;;;20.40;1.00;;;;;;4916011;29;20048;-56
2023/06/03 11:24:43;;;;;;;2.88;0.52;;;20.40;1.00;;;;;;4914739;29;20058;-51
2023/06/03 11:27:10;;;;;;;1.15;0.35;;;20.40;1.00;;;;;;4901343;29;20052;-54
2023/06/03 11:29:51;;;;;;;1.77;0.57;;;20.40;1.00;;;;;;4913974;29;20123;-51
2023/06/03 11:32:19;;;;;;;3.60;1.45;;;20.40;1.00;;;;;;4910451;29;20040;-53
2023/06/03 11:35:03;;;;;;;1.23;0.55;;;20.40;1.00;;;;;;4911533;29;20451;-53
2023/06/03 11:37:48;;;;;;;2.53;0.50;;;20.40;1.00;;;;;;4907388;29;20425;-55
2023/06/03 11:40:18;;;;;;;2.67;1.05;;;20.40;1.00;;;;;;4905346;29;20048;-56
2023/06/03 11:42:51;;;;;;;1.40;0.50;;;20.40;1.00;;;;;;4910939;29;20044;-56
2023/06/03 11:45:28;;;;;;;2.72;0.57;;;20.40;1.00;;;;;;4912187;29;20048;-54
2023/06/03 11:47:59;;;;;;;1.70;0.50;;;20.40;1.00;;;;;;4908898;29;20058;-57
2023/06/03 11:50:33;;;;;;;1.23;0.55;;;20.40;1.00;;;;;;4957193;23;20536;-51
2023/06/03 11:53:00;;;;;;;4.18;0.60;;;20.40;1.00;;;;;;4875395;29;20049;-50
2023/06/03 11:55:32;;;;;;;1.00;0.60;;;20.40;1.00;;;;;;4877041;29;20053;-55
2023/06/03 11:58:14;;;;;;;3.53;0.60;;;20.40;1.00;;;;;;4873905;29;20049;-55
2023/06/03 12:00:40;;;;;;;0.68;0.40;;;20.40;1.00;;;;;;4874439;29;20059;-51
2023/06/03 12:03:14;;;;;;;3.85;0.90;;;20.40;1.00;;;;;;4876900;29;20041;-56
2023/06/03 12:05:59;;;;;;;1.55;0.45;;;20.30;1.00;;;;;;4873233;29;20077;-52
2023/06/03 12:08:40;;;;;;;2.17;0.60;;;20.40;1.00;;;;;;4877561;29;20088;-54
2023/06/03 12:11:07;;;;;;;4.15;1.02;;;20.30;1.00;;;;;;4876904;29;20064;-52
2023/06/03 12:13:41;;;;;;;4.82;0.60;;;20.40;1.00;;;;;;4877246;29;20586;-52
2023/06/03 12:16:08;;;;;;;3.22;0.57;;;20.40;1.00;;;;;;4868510;29;20104;-53
2023/06/03 12:18:34;;;;;;;5.25;0.50;;;20.30;1.00;;;;;;4875824;29;20067;-55
2023/06/03 12:21:21;;;;;;;1.33;0.45;;;20.30;1.00;;;;;;5000142;23;20057;-55
2023/06/03 12:23:48;;;;;;;4.18;0.57;;;20.40;1.00;;;;;;4839660;29;20463;-53
2023/06/03 12:26:15;;;;;;;3.92;0.77;;;20.30;1.00;;;;;;4838311;29;20124;-53
2023/06/03 12:28:42;;;;;;;2.75;0.60;;;20.30;1.00;;;;;;4835605;29;20411;-55
2023/06/03 12:31:17;;;;;;;1.48;0.73;;;20.30;1.00;;;;;;4840975;29;20041;-55
2023/06/03 12:33:45;;;;;;;1.00;0.50;;;20.30;1.00;;;;;;4841286;29;20441;-53
2023/06/03 12:36:13;;;;;;;0.85;0.40;;;20.30;1.00;;;;;;4840988;29;20042;-55
2023/06/03 12:38:58;;;;;;;2.25;0.80;;;20.30;1.00;;;;;;4840798;29;20062;-55
2023/06/03 12:41:29;;;;;;;3.35;0.38;;;20.30;1.00;;;;;;4841183;29;20105;-56
2023/06/03 12:44:01;;;;;;;1.10;0.60;;;20.30;1.00;;;;;;4840847;29;20220;-56
2023/06/03 12:46:28;;;;;;;1.77;0.50;;;20.30;1.00;;;;;;4840961;29;20582;-55
2023/06/03 12:48:58;;;;;;;1.35;0.50;;;20.30;1.00;;;;;;4840620;29;20049;-54
2023/06/03 12:51:29;;;;;;;1.00;0.68;;;20.30;1.00;;;;;;4992441;23;20044;-52
2023/06/03 12:53:57;;;;;;;1.50;0.40;;;20.30;1.00;;;;;;4892708;29;20060;-56
2023/06/03 12:56:25;;;;;;;4.55;0.70;;;20.30;1.00;;;;;;4894980;29;20198;-56
2023/06/03 12:58:53;;;;;;;3.35;0.70;;;20.30;1.00;;;;;;4895655;29;20445;-55
2023/06/03 13:01:22;;;;;;;5.57;0.80;;;20.30;1.00;;;;;;4895872;29;20132;-55
2023/06/03 13:03:54;;;;;;;4.88;1.55;;;20.30;1.00;;;;;;4895343;29;20059;-56
2023/06/03 13:06:28;;;;;;;3.95;1.48;;;20.20;1.00;;;;;;4895373;29;20071;-55
2023/06/03 13:08:54;;;;;;;0.98;0.40;;;20.20;1.00;;;;;;4892641;29;20052;-55
2023/06/03 13:11:21;;;;;;;3.95;0.60;;;20.30;1.00;;;;;;4895536;29;20055;-56
2023/06/03 13:13:48;;;;;;;2.80;0.55;;;20.30;1.00;;;;;;4895352;29;20249;-56
2023/06/03 13:16:16;;;;;;;0.98;0.47;;;20.20;1.00;;;;;;4895272;29;20061;-55
2023/06/03 13:18:43;;;;;;;0.90;0.40;;;20.20;1.00;;;;;;4895386;29;20124;-54